createdAt,value
2022-10-05T00:00:40.366Z,0
2022-10-05T00:01:43.661Z,0
2022-10-05T00:02:46.527Z,0
2022-10-05T00:04:21.760Z,0
2022-10-05T00:05:25.170Z,0
2022-10-05T00:06:27.917Z,0
2022-10-05T00:08:02.960Z,0
2022-10-05T00:09:05.842Z,0
2022-10-05T00:10:08.787Z,0
2022-10-05T00:11:43.429Z,0
2022-10-05T00:12:46.030Z,0
2022-10-05T00:13:48.756Z,0
2022-10-05T00:15:23.507Z,0
2022-10-05T00:16:26.649Z,0
2022-10-05T00:17:29.513Z,0
2022-10-05T00:19:04.122Z,0
2022-10-05T00:20:06.926Z,0
2022-10-05T00:21:09.506Z,0
2022-10-05T00:22:44.121Z,0
2022-10-05T00:23:47.150Z,0
2022-10-05T00:24:49.935Z,0
2022-10-05T00:26:24.346Z,0
2022-10-05T00:27:27.170Z,0
2022-10-05T00:28:30.551Z,0
2022-10-05T00:30:05.419Z,0
2022-10-05T00:31:08.170Z,0
2022-10-05T00:32:11.615Z,0
2022-10-05T00:33:46.399Z,0
2022-10-05T00:34:49.160Z,0
2022-10-05T00:35:51.959Z,0
2022-10-05T00:37:26.713Z,0
2022-10-05T00:38:29.695Z,0
2022-10-05T00:39:32.360Z,0
2022-10-05T00:41:06.818Z,0
2022-10-05T00:42:09.480Z,0
2022-10-05T00:43:12.134Z,0
2022-10-05T00:44:46.823Z,0
2022-10-05T00:45:50.159Z,0
2022-10-05T00:46:53.533Z,0
2022-10-05T00:48:28.106Z,0
2022-10-05T00:49:31.058Z,0
2022-10-05T00:50:33.712Z,0
2022-10-05T00:52:08.346Z,0
2022-10-05T00:53:11.109Z,0
2022-10-05T00:54:18.201Z,0
2022-10-05T00:55:52.980Z,0
2022-10-05T00:56:56.162Z,0
2022-10-05T00:57:58.995Z,0
2022-10-05T00:59:33.540Z,0
2022-10-05T01:00:39.881Z,0
2022-10-05T01:01:43.176Z,0
2022-10-05T01:02:53.671Z,0
2022-10-05T01:04:28.515Z,0
2022-10-05T01:05:31.394Z,0
2022-10-05T01:06:34.085Z,0
2022-10-05T01:08:08.576Z,0
2022-10-05T01:09:11.427Z,0
2022-10-05T01:10:14.316Z,0
2022-10-05T01:11:49.000Z,0
2022-10-05T01:12:51.640Z,0
2022-10-05T01:13:54.343Z,0
2022-10-05T01:15:28.803Z,0
2022-10-05T01:16:32.045Z,0
2022-10-05T01:17:34.715Z,0
2022-10-05T01:19:09.253Z,0
2022-10-05T01:20:11.845Z,0
2022-10-05T01:21:14.592Z,0
2022-10-05T01:22:49.122Z,0
2022-10-05T01:23:51.680Z,0
2022-10-05T01:24:54.308Z,0
2022-10-05T01:26:28.895Z,0
2022-10-05T01:27:31.552Z,0
2022-10-05T01:28:35.202Z,0
2022-10-05T01:30:09.611Z,0
2022-10-05T01:31:12.387Z,0
2022-10-05T01:32:15.463Z,0
2022-10-05T01:33:50.049Z,0
2022-10-05T01:34:52.745Z,0
2022-10-05T01:35:55.584Z,0
2022-10-05T01:37:29.945Z,0
2022-10-05T01:38:32.635Z,0
2022-10-05T01:39:35.466Z,0
2022-10-05T01:41:09.941Z,0
2022-10-05T01:42:12.773Z,0
2022-10-05T01:43:15.373Z,0
2022-10-05T01:44:49.971Z,0
2022-10-05T01:45:53.095Z,0
2022-10-05T01:46:56.361Z,0
2022-10-05T01:48:30.824Z,0
2022-10-05T01:49:33.681Z,0
2022-10-05T01:50:36.395Z,0
2022-10-05T01:52:10.817Z,0
2022-10-05T01:53:13.732Z,0
2022-10-05T01:54:16.360Z,0
2022-10-05T01:55:51.054Z,0
2022-10-05T01:56:54.564Z,0
2022-10-05T01:57:57.285Z,0
2022-10-05T01:59:31.760Z,0
2022-10-05T02:00:40.590Z,0
2022-10-05T02:01:43.933Z,0
2022-10-05T02:02:47.336Z,0
2022-10-05T02:05:02.985Z,0
2022-10-05T02:06:05.894Z,0
2022-10-05T02:07:09.313Z,0
2022-10-05T02:08:43.815Z,0
2022-10-05T02:09:46.543Z,0
2022-10-05T02:10:49.147Z,0
2022-10-05T02:12:23.674Z,0
2022-10-05T02:13:26.374Z,0
2022-10-05T02:14:29.062Z,0
2022-10-05T02:16:04.035Z,0
2022-10-05T02:17:07.315Z,0
2022-10-05T02:18:10.011Z,0
2022-10-05T02:19:44.596Z,0
2022-10-05T02:20:47.218Z,0
2022-10-05T02:21:50.042Z,0
2022-10-05T02:23:24.708Z,0
2022-10-05T02:24:27.455Z,0
2022-10-05T02:25:30.077Z,0
2022-10-05T02:27:05.305Z,0
2022-10-05T02:28:08.162Z,0
2022-10-05T02:29:10.846Z,0
2022-10-05T02:30:45.210Z,0
2022-10-05T02:31:48.457Z,0
2022-10-05T02:32:51.206Z,0
2022-10-05T02:34:25.622Z,0
2022-10-05T02:35:28.313Z,0
2022-10-05T02:36:31.069Z,0
2022-10-05T02:38:05.505Z,0
2022-10-05T02:39:08.172Z,0
2022-10-05T02:40:10.854Z,0
2022-10-05T02:41:45.499Z,0
2022-10-05T02:42:48.283Z,0
2022-10-05T02:43:50.922Z,0
2022-10-05T02:45:25.362Z,0
2022-10-05T02:46:28.624Z,0
2022-10-05T02:47:31.226Z,0
2022-10-05T02:49:05.777Z,0
2022-10-05T02:50:08.541Z,0
2022-10-05T02:51:11.313Z,0
2022-10-05T02:52:45.833Z,0
2022-10-05T02:53:48.490Z,0
2022-10-05T02:54:51.414Z,0
2022-10-05T02:56:25.820Z,0
2022-10-05T02:57:28.579Z,0
2022-10-05T02:58:31.303Z,0
2022-10-05T03:00:39.973Z,0
2022-10-05T03:01:43.521Z,0
2022-10-05T03:02:46.389Z,0
2022-10-05T03:04:20.853Z,0
2022-10-05T03:05:23.484Z,0
2022-10-05T03:06:26.151Z,0
2022-10-05T03:08:01.559Z,0
2022-10-05T03:09:04.373Z,0
2022-10-05T03:10:12.153Z,0
2022-10-05T03:11:46.658Z,0
2022-10-05T03:12:49.418Z,0
2022-10-05T03:13:52.090Z,0
2022-10-05T03:15:26.539Z,0
2022-10-05T03:16:29.640Z,0
2022-10-05T03:17:32.483Z,0
2022-10-05T03:19:06.945Z,0
2022-10-05T03:20:09.504Z,0
2022-10-05T03:21:12.107Z,0
2022-10-05T03:22:46.707Z,0
2022-10-05T03:23:49.524Z,0
2022-10-05T03:24:52.319Z,0
2022-10-05T03:26:26.794Z,0
2022-10-05T03:27:29.594Z,0
2022-10-05T03:28:32.954Z,0
2022-10-05T03:30:07.419Z,0
2022-10-05T03:31:10.547Z,0
2022-10-05T03:32:13.339Z,0
2022-10-05T03:33:47.764Z,0
2022-10-05T03:34:50.323Z,0
2022-10-05T03:35:53.082Z,0
2022-10-05T03:37:27.519Z,0
2022-10-05T03:38:30.219Z,0
2022-10-05T03:39:32.736Z,0
2022-10-05T03:41:07.099Z,0
2022-10-05T03:42:09.790Z,0
2022-10-05T03:43:12.497Z,0
2022-10-05T03:44:47.157Z,0
2022-10-05T03:45:49.844Z,0
2022-10-05T03:46:53.492Z,0
2022-10-05T03:48:29.707Z,0
2022-10-05T03:49:32.301Z,0
2022-10-05T03:50:34.903Z,0
2022-10-05T03:52:09.258Z,0
2022-10-05T03:53:11.898Z,0
2022-10-05T03:54:14.602Z,0
2022-10-05T03:55:49.278Z,0
2022-10-05T03:56:52.640Z,0
2022-10-05T03:57:55.379Z,0
2022-10-05T03:59:35.775Z,0
2022-10-05T04:00:39.733Z,0
2022-10-05T04:01:42.860Z,0
2022-10-05T04:02:46.063Z,0
2022-10-05T04:04:20.604Z,0
2022-10-05T04:06:09.111Z,0
2022-10-05T04:07:12.633Z,0
2022-10-05T04:08:15.630Z,0
2022-10-05T04:09:56.532Z,0
2022-10-05T04:10:59.309Z,0
2022-10-05T04:12:02.078Z,0
2022-10-05T04:13:37.033Z,0
2022-10-05T04:14:39.671Z,0
2022-10-05T04:15:47.327Z,0
2022-10-05T04:17:22.593Z,0
2022-10-05T04:18:25.655Z,0
2022-10-05T04:19:28.557Z,0
2022-10-05T04:21:03.478Z,0
2022-10-05T04:22:06.267Z,0
2022-10-05T04:23:09.000Z,0
2022-10-05T04:24:43.810Z,0
2022-10-05T04:25:46.858Z,0
2022-10-05T04:26:50.319Z,0
2022-10-05T04:28:31.049Z,0
2022-10-05T04:29:34.959Z,0
2022-10-05T04:30:37.898Z,0
2022-10-05T04:32:13.082Z,0
2022-10-05T04:33:15.901Z,0
2022-10-05T04:34:18.814Z,0
2022-10-05T04:35:53.634Z,0
2022-10-05T04:36:57.022Z,0
2022-10-05T04:38:03.680Z,0
2022-10-05T04:39:38.481Z,0
2022-10-05T04:40:41.313Z,0
2022-10-05T04:41:44.309Z,0
2022-10-05T04:43:18.980Z,0
2022-10-05T04:44:22.034Z,0
2022-10-05T04:45:27.329Z,0
2022-10-05T04:47:03.209Z,0
2022-10-05T04:48:06.051Z,0
2022-10-05T04:49:08.834Z,0
2022-10-05T04:50:43.702Z,0
2022-10-05T04:51:50.883Z,0
2022-10-05T04:52:54.020Z,0
2022-10-05T04:54:28.731Z,0
2022-10-05T04:55:31.803Z,0
2022-10-05T04:56:35.040Z,0
2022-10-05T04:58:09.614Z,0
2022-10-05T04:59:12.466Z,0
2022-10-05T05:00:40.323Z,0
2022-10-05T05:01:43.358Z,0
2022-10-05T05:02:46.167Z,0
2022-10-05T05:04:21.393Z,0
2022-10-05T05:05:24.315Z,0
2022-10-05T05:06:45.108Z,0
2022-10-05T05:08:19.960Z,0
2022-10-05T05:09:22.806Z,0
2022-10-05T05:10:25.684Z,0
2022-10-05T05:12:00.310Z,0
2022-10-05T05:13:03.183Z,0
2022-10-05T05:14:06.112Z,0
2022-10-05T05:15:41.323Z,0
2022-10-05T05:16:45.030Z,0
2022-10-05T05:17:48.183Z,0
2022-10-05T05:19:22.933Z,0
2022-10-05T05:20:25.807Z,0
2022-10-05T05:21:28.871Z,0
2022-10-05T05:23:03.478Z,0
2022-10-05T05:24:06.464Z,0
2022-10-05T05:25:09.424Z,0
2022-10-05T05:26:50.556Z,0
2022-10-05T05:27:54.123Z,0
2022-10-05T05:28:57.217Z,0
2022-10-05T05:30:31.801Z,0
2022-10-05T05:31:35.554Z,0
2022-10-05T05:32:38.381Z,0
2022-10-05T05:34:13.095Z,0
2022-10-05T05:35:16.019Z,0
2022-10-05T05:36:22.981Z,0
2022-10-05T05:37:59.120Z,0
2022-10-05T05:39:02.006Z,0
2022-10-05T05:40:04.922Z,0
2022-10-05T05:41:39.712Z,0
2022-10-05T05:42:42.575Z,0
2022-10-05T05:43:45.350Z,0
2022-10-05T05:45:20.296Z,0
2022-10-05T05:46:34.179Z,0
2022-10-05T05:47:42.889Z,0
2022-10-05T05:49:17.668Z,0
2022-10-05T05:50:25.324Z,0
2022-10-05T05:51:28.098Z,0
2022-10-05T05:53:02.752Z,0
2022-10-05T05:54:05.499Z,0
2022-10-05T05:55:08.238Z,0
2022-10-05T05:56:44.981Z,0
2022-10-05T05:57:47.963Z,0
2022-10-05T05:58:50.765Z,0
2022-10-05T06:00:39.672Z,0
2022-10-05T06:02:07.965Z,0
2022-10-05T06:03:12.078Z,0
2022-10-05T06:04:46.792Z,0
2022-10-05T06:05:49.859Z,0
2022-10-05T06:06:53.744Z,0
2022-10-05T06:08:33.639Z,0
2022-10-05T06:09:36.379Z,0
2022-10-05T06:10:39.452Z,0
2022-10-05T06:12:14.335Z,0
2022-10-05T06:13:23.280Z,0
2022-10-05T06:14:26.025Z,0
2022-10-05T06:16:00.660Z,0
2022-10-05T06:17:04.453Z,0
2022-10-05T06:18:07.360Z,0
2022-10-05T06:19:42.174Z,0
2022-10-05T06:20:44.843Z,0
2022-10-05T06:21:47.647Z,0
2022-10-05T06:23:22.229Z,0
2022-10-05T06:24:24.905Z,0
2022-10-05T06:25:27.834Z,0
2022-10-05T06:27:03.101Z,0
2022-10-05T06:28:06.372Z,0
2022-10-05T06:29:09.388Z,0
2022-10-05T06:30:44.030Z,0
2022-10-05T06:31:47.652Z,0
2022-10-05T06:32:50.528Z,0
2022-10-05T06:34:25.486Z,0
2022-10-05T06:35:28.431Z,0
2022-10-05T06:36:31.142Z,0
2022-10-05T06:38:05.854Z,0
2022-10-05T06:39:08.813Z,0
2022-10-05T06:40:17.683Z,0
2022-10-05T06:41:52.201Z,0
2022-10-05T06:42:54.796Z,0
2022-10-05T06:43:57.738Z,0
2022-10-05T06:45:32.995Z,0
2022-10-05T06:46:36.297Z,0
2022-10-05T06:47:39.128Z,0
2022-10-05T06:49:19.421Z,0
2022-10-05T06:50:22.311Z,0
2022-10-05T06:51:25.278Z,0
2022-10-05T06:53:00.023Z,0
2022-10-05T06:54:02.866Z,0
2022-10-05T06:55:08.594Z,0
2022-10-05T06:56:45.475Z,0.435
2022-10-05T06:57:48.522Z,0.435
2022-10-05T06:58:51.750Z,0
2022-10-05T07:00:40.670Z,0.435
2022-10-05T07:01:44.774Z,0
2022-10-05T07:02:48.333Z,0
2022-10-05T07:04:22.960Z,0.435
2022-10-05T07:05:25.878Z,0
2022-10-05T07:06:28.996Z,0
2022-10-05T07:08:03.508Z,0
2022-10-05T07:09:06.218Z,0
2022-10-05T07:10:08.974Z,0
2022-10-05T07:11:43.900Z,0
2022-10-05T07:12:46.996Z,0
2022-10-05T07:13:49.896Z,0
2022-10-05T07:15:24.552Z,0
2022-10-05T07:16:27.852Z,0
2022-10-05T07:17:31.211Z,0
2022-10-05T07:19:05.744Z,0
2022-10-05T07:20:08.621Z,0
2022-10-05T07:21:17.145Z,0
2022-10-05T07:22:56.817Z,0
2022-10-05T07:23:59.585Z,0
2022-10-05T07:25:02.365Z,0
2022-10-05T07:26:37.276Z,0
2022-10-05T07:27:40.143Z,0
2022-10-05T07:28:43.836Z,0.435
2022-10-05T07:30:18.321Z,0.435
2022-10-05T07:31:21.734Z,0
2022-10-05T07:32:24.800Z,0.435
2022-10-05T07:33:59.504Z,0.435
2022-10-05T07:35:02.193Z,0.435
2022-10-05T07:36:05.068Z,0.435
2022-10-05T07:37:39.857Z,0.435
2022-10-05T07:38:42.757Z,0.435
2022-10-05T07:40:15.776Z,0.435
2022-10-05T07:41:50.856Z,0.435
2022-10-05T07:43:04.279Z,0.435
2022-10-05T07:44:35.233Z,0.435
2022-10-05T07:46:10.659Z,0.435
2022-10-05T07:47:14.284Z,0.435
2022-10-05T07:48:17.052Z,0.435
2022-10-05T07:49:52.247Z,0.585
2022-10-05T07:50:55.325Z,0.435
2022-10-05T07:51:58.072Z,0.435
2022-10-05T07:53:38.005Z,0.435
2022-10-05T07:54:40.876Z,0.435
2022-10-05T07:55:43.820Z,0.585
2022-10-05T07:57:18.826Z,0.585
2022-10-05T07:58:21.639Z,0.585
2022-10-05T07:59:24.801Z,0.585
2022-10-05T08:00:40.159Z,0.585
2022-10-05T08:01:43.569Z,0.585
2022-10-05T08:02:47.883Z,0.585
2022-10-05T08:04:23.211Z,0.585
2022-10-05T08:05:26.302Z,0.585
2022-10-05T08:06:29.130Z,0.585
2022-10-05T08:08:04.459Z,0.735
2022-10-05T08:09:07.257Z,0.735
2022-10-05T08:10:09.948Z,0.735
2022-10-05T08:11:45.113Z,0.885
2022-10-05T08:12:48.219Z,0.885
2022-10-05T08:13:50.924Z,0.735
2022-10-05T08:15:25.469Z,0.885
2022-10-05T08:16:28.802Z,0.735
2022-10-05T08:17:36.982Z,0.735
2022-10-05T08:19:11.594Z,0.585
2022-10-05T08:20:14.480Z,0.585
2022-10-05T08:21:17.442Z,0.735
2022-10-05T08:22:52.902Z,0.885
2022-10-05T08:23:55.658Z,0.885
2022-10-05T08:24:58.433Z,1.02
2022-10-05T08:26:33.245Z,1.02
2022-10-05T08:27:36.013Z,1.02
2022-10-05T08:28:39.466Z,1.02
2022-10-05T08:30:19.032Z,0.885
2022-10-05T08:31:22.665Z,0.885
2022-10-05T08:32:25.852Z,1.02
2022-10-05T08:34:00.777Z,1.02
2022-10-05T08:35:03.761Z,1.02
2022-10-05T08:36:06.587Z,1.17
2022-10-05T08:37:41.205Z,1.17
2022-10-05T08:38:44.207Z,1.17
2022-10-05T08:39:46.978Z,1.02
2022-10-05T08:41:21.886Z,1.17
2022-10-05T08:42:24.778Z,1.17
2022-10-05T08:43:31.671Z,1.02
2022-10-05T08:45:09.079Z,1.02
2022-10-05T08:46:12.341Z,1.17
2022-10-05T08:47:15.272Z,1.02
2022-10-05T08:48:49.750Z,1.02
2022-10-05T08:49:57.583Z,1.02
2022-10-05T08:51:00.489Z,1.02
2022-10-05T08:52:35.297Z,1.02
2022-10-05T08:53:38.078Z,1.02
2022-10-05T08:54:40.828Z,1.17
2022-10-05T08:56:19.823Z,1.32
2022-10-05T08:57:23.847Z,1.32
2022-10-05T08:58:26.673Z,1.17
2022-10-05T09:00:39.857Z,1.17
2022-10-05T09:01:43.122Z,1.32
2022-10-05T09:02:46.624Z,1.32
2022-10-05T09:04:21.329Z,1.17
2022-10-05T09:05:24.179Z,1.17
2022-10-05T09:06:27.168Z,1.32
2022-10-05T09:08:05.390Z,1.32
2022-10-05T09:09:08.189Z,1.17
2022-10-05T09:10:16.247Z,1.32
2022-10-05T09:11:51.537Z,1.17
2022-10-05T09:12:54.248Z,1.17
2022-10-05T09:13:57.182Z,1.32
2022-10-05T09:15:49.552Z,1.32
2022-10-05T09:16:52.468Z,1.32
2022-10-05T09:18:01.452Z,1.32
2022-10-05T09:19:36.204Z,1.47
2022-10-05T09:20:39.125Z,1.47
2022-10-05T09:21:42.232Z,1.47
2022-10-05T09:23:17.048Z,1.47
2022-10-05T09:24:20.066Z,1.47
2022-10-05T09:25:22.679Z,1.47
2022-10-05T09:26:57.565Z,1.47
2022-10-05T09:28:00.721Z,1.47
2022-10-05T09:29:04.077Z,1.755
2022-10-05T09:30:38.859Z,1.47
2022-10-05T09:31:42.357Z,1.47
2022-10-05T09:32:45.226Z,1.755
2022-10-05T09:34:19.935Z,1.755
2022-10-05T09:35:22.621Z,1.755
2022-10-05T09:36:25.384Z,1.47
2022-10-05T09:37:59.973Z,1.47
2022-10-05T09:39:03.001Z,1.47
2022-10-05T09:40:12.274Z,1.47
2022-10-05T09:41:47.104Z,1.47
2022-10-05T09:42:50.362Z,1.47
2022-10-05T09:43:54.088Z,1.47
2022-10-05T09:45:32.730Z,1.47
2022-10-05T09:46:36.371Z,1.47
2022-10-05T09:47:39.346Z,1.47
2022-10-05T09:49:14.406Z,1.47
2022-10-05T09:50:17.567Z,1.47
2022-10-05T09:51:20.586Z,1.47
2022-10-05T09:52:56.026Z,1.47
2022-10-05T09:53:58.904Z,1.47
2022-10-05T09:55:01.840Z,1.47
2022-10-05T09:56:36.828Z,1.755
2022-10-05T09:57:39.723Z,1.755
2022-10-05T09:58:42.478Z,1.905
2022-10-05T10:00:40.739Z,1.47
2022-10-05T10:02:01.967Z,1.755
2022-10-05T10:03:06.371Z,1.47
2022-10-05T10:04:41.252Z,1.47
2022-10-05T10:05:44.157Z,1.47
2022-10-05T10:06:46.905Z,1.47
2022-10-05T10:08:21.906Z,1.755
2022-10-05T10:09:24.617Z,1.47
2022-10-05T10:10:27.438Z,1.47
2022-10-05T10:12:02.857Z,1.755
2022-10-05T10:13:05.609Z,1.755
2022-10-05T10:14:08.422Z,1.905
2022-10-05T10:15:43.304Z,1.905
2022-10-05T10:16:46.368Z,1.905
2022-10-05T10:17:49.283Z,2.055
2022-10-05T10:19:23.842Z,2.055
2022-10-05T10:20:26.827Z,2.055
2022-10-05T10:21:29.808Z,1.905
2022-10-05T10:23:11.017Z,1.905
2022-10-05T10:24:13.743Z,1.905
2022-10-05T10:25:16.913Z,1.755
2022-10-05T10:26:52.301Z,1.905
2022-10-05T10:27:58.215Z,1.755
2022-10-05T10:29:01.425Z,1.755
2022-10-05T10:30:42.481Z,1.755
2022-10-05T10:31:46.085Z,1.905
2022-10-05T10:32:49.045Z,1.755
2022-10-05T10:34:23.679Z,1.755
2022-10-05T10:35:26.528Z,1.755
2022-10-05T10:36:35.053Z,1.905
2022-10-05T10:38:09.736Z,1.755
2022-10-05T10:39:12.660Z,1.755
2022-10-05T10:40:15.781Z,1.755
2022-10-05T10:41:50.390Z,1.755
2022-10-05T10:42:54.502Z,1.755
2022-10-05T10:43:57.481Z,1.905
2022-10-05T10:45:32.417Z,1.905
2022-10-05T10:46:35.985Z,1.905
2022-10-05T10:47:39.042Z,1.905
2022-10-05T10:49:13.849Z,1.905
2022-10-05T10:50:16.630Z,2.055
2022-10-05T10:51:19.275Z,2.055
2022-10-05T10:52:53.952Z,1.755
2022-10-05T10:53:57.165Z,1.905
2022-10-05T10:54:59.943Z,2.055
2022-10-05T10:56:34.748Z,1.905
2022-10-05T10:57:37.570Z,1.905
2022-10-05T10:58:44.589Z,1.905
2022-10-05T11:00:40.197Z,2.055
2022-10-05T11:01:43.626Z,1.905
2022-10-05T11:02:47.190Z,1.905
2022-10-05T11:04:22.260Z,1.755
2022-10-05T11:05:25.111Z,1.755
2022-10-05T11:06:27.886Z,1.755
2022-10-05T11:08:02.855Z,1.755
2022-10-05T11:09:05.984Z,1.32
2022-10-05T11:10:08.781Z,1.905
2022-10-05T11:11:43.297Z,1.47
2022-10-05T11:12:51.398Z,1.905
2022-10-05T11:13:54.441Z,1.47
2022-10-05T11:15:28.969Z,1.47
2022-10-05T11:16:36.849Z,1.47
2022-10-05T11:17:39.802Z,1.47
2022-10-05T11:19:14.965Z,1.47
2022-10-05T11:20:32.958Z,1.17
2022-10-05T11:21:35.747Z,1.32
2022-10-05T11:23:10.241Z,1.32
2022-10-05T11:24:13.043Z,1.32
2022-10-05T11:25:15.866Z,1.47
2022-10-05T11:26:51.389Z,1.32
2022-10-05T11:27:54.498Z,1.47
2022-10-05T11:28:57.499Z,1.17
2022-10-05T11:30:32.419Z,1.47
2022-10-05T11:31:35.830Z,1.47
2022-10-05T11:32:38.709Z,1.32
2022-10-05T11:34:13.461Z,1.32
2022-10-05T11:35:16.360Z,1.755
2022-10-05T11:36:19.440Z,1.47
2022-10-05T11:37:54.140Z,1.32
2022-10-05T11:38:57.144Z,1.47
2022-10-05T11:40:00.175Z,1.32
2022-10-05T11:41:34.725Z,1.32
2022-10-05T11:42:37.708Z,1.32
2022-10-05T11:43:40.777Z,1.32
2022-10-05T11:45:21.857Z,1.17
2022-10-05T11:46:25.187Z,1.17
2022-10-05T11:47:28.219Z,1.17
2022-10-05T11:49:02.836Z,1.17
2022-10-05T11:50:05.596Z,1.32
2022-10-05T11:51:08.583Z,1.02
2022-10-05T11:52:43.544Z,1.32
2022-10-05T11:53:46.459Z,1.17
2022-10-05T11:55:21.843Z,1.32
2022-10-05T11:57:00.928Z,1.17
2022-10-05T11:58:04.178Z,1.02
2022-10-05T11:59:07.190Z,1.02
2022-10-05T12:00:40.888Z,1.32
2022-10-05T12:01:43.754Z,1.17
2022-10-05T12:02:51.643Z,1.17
2022-10-05T12:04:27.937Z,1.32
2022-10-05T12:05:30.896Z,1.32
2022-10-05T12:06:33.828Z,1.755
2022-10-05T12:08:08.600Z,1.32
2022-10-05T12:09:11.600Z,1.32
2022-10-05T12:10:14.547Z,1.47
2022-10-05T12:11:49.294Z,1.17
2022-10-05T12:12:52.466Z,1.17
2022-10-05T12:13:55.242Z,1.32
2022-10-05T12:15:29.695Z,1.32
2022-10-05T12:16:32.740Z,1.32
2022-10-05T12:17:35.639Z,1.17
2022-10-05T12:19:10.696Z,1.32
2022-10-05T12:20:13.723Z,1.32
2022-10-05T12:21:16.579Z,1.32
2022-10-05T12:22:51.366Z,1.32
2022-10-05T12:23:54.325Z,1.32
2022-10-05T12:24:57.298Z,1.32
2022-10-05T12:26:32.083Z,1.32
2022-10-05T12:27:35.181Z,1.17
2022-10-05T12:28:38.834Z,1.32
2022-10-05T12:30:13.363Z,1.755
2022-10-05T12:31:16.902Z,1.47
2022-10-05T12:32:19.904Z,1.47
2022-10-05T12:33:54.437Z,1.755
2022-10-05T12:35:01.864Z,1.755
2022-10-05T12:36:16.976Z,1.755
2022-10-05T12:38:17.361Z,1.755
2022-10-05T12:39:20.403Z,1.755
2022-10-05T12:40:23.175Z,1.47
2022-10-05T12:41:58.903Z,1.17
2022-10-05T12:43:07.508Z,1.17
2022-10-05T12:44:10.282Z,1.32
2022-10-05T12:45:45.393Z,1.32
2022-10-05T12:46:48.325Z,1.32
2022-10-05T12:47:55.924Z,1.17
2022-10-05T12:49:30.562Z,1.17
2022-10-05T12:50:33.504Z,1.32
2022-10-05T12:51:36.246Z,1.17
2022-10-05T12:53:10.975Z,1.32
2022-10-05T12:54:13.896Z,1.32
2022-10-05T12:55:16.898Z,1.17
2022-10-05T12:56:51.873Z,1.32
2022-10-05T12:57:54.912Z,1.755
2022-10-05T12:58:57.902Z,1.47
2022-10-05T13:00:45.936Z,1.32
2022-10-05T13:01:49.120Z,1.32
2022-10-05T13:02:52.053Z,1.32
2022-10-05T13:04:26.684Z,1.47
2022-10-05T13:05:29.749Z,1.47
2022-10-05T13:06:33.517Z,1.47
2022-10-05T13:08:08.300Z,1.47
2022-10-05T13:09:11.064Z,1.47
2022-10-05T13:10:13.890Z,1.47
2022-10-05T13:11:48.543Z,1.47
2022-10-05T13:12:51.403Z,1.755
2022-10-05T13:13:54.073Z,1.47
2022-10-05T13:15:28.661Z,1.32
2022-10-05T13:16:33.006Z,1.32
2022-10-05T13:17:36.918Z,1.755
2022-10-05T13:19:11.719Z,1.32
2022-10-05T13:20:14.349Z,1.32
2022-10-05T13:21:17.579Z,1.47
2022-10-05T13:22:52.705Z,1.905
2022-10-05T13:24:00.705Z,1.755
2022-10-05T13:25:03.849Z,1.755
2022-10-05T13:26:39.473Z,1.755
2022-10-05T13:27:42.394Z,1.755
2022-10-05T13:28:45.550Z,1.755
2022-10-05T13:30:22.760Z,1.755
2022-10-05T13:31:25.967Z,1.47
2022-10-05T13:32:28.940Z,1.755
2022-10-05T13:34:03.654Z,1.47
2022-10-05T13:35:11.284Z,1.47
2022-10-05T13:36:14.814Z,1.47
2022-10-05T13:37:49.863Z,1.47
2022-10-05T13:38:52.915Z,1.47
2022-10-05T13:39:56.296Z,1.47
2022-10-05T13:41:30.893Z,1.47
2022-10-05T13:42:33.776Z,1.755
2022-10-05T13:45:12.442Z,1.755
2022-10-05T13:46:20.883Z,1.755
2022-10-05T13:47:23.954Z,1.47
2022-10-05T13:48:58.600Z,1.755
2022-10-05T13:50:02.060Z,1.47
2022-10-05T13:51:04.907Z,1.755
2022-10-05T13:52:39.584Z,1.47
2022-10-05T13:53:42.398Z,1.47
2022-10-05T13:54:45.294Z,1.47
2022-10-05T13:56:20.041Z,1.47
2022-10-05T13:57:23.213Z,1.47
2022-10-05T13:58:26.099Z,1.47
2022-10-05T14:00:01.179Z,1.32
2022-10-05T14:00:44.113Z,1.32
2022-10-05T14:01:47.069Z,1.47
2022-10-05T14:02:50.082Z,1.47
2022-10-05T14:04:24.916Z,1.755
2022-10-05T14:05:27.915Z,1.47
2022-10-05T14:06:30.728Z,1.755
2022-10-05T14:08:05.505Z,1.47
2022-10-05T14:09:08.369Z,1.47
2022-10-05T14:10:11.306Z,1.32
2022-10-05T14:11:46.084Z,1.47
2022-10-05T14:12:48.965Z,1.32
2022-10-05T14:13:51.896Z,1.32
2022-10-05T14:15:26.624Z,1.47
2022-10-05T14:16:29.885Z,1.32
2022-10-05T14:17:38.669Z,1.17
2022-10-05T14:19:13.852Z,1.32
2022-10-05T14:20:16.732Z,1.32
2022-10-05T14:21:19.991Z,1.32
2022-10-05T14:22:55.175Z,1.32
2022-10-05T14:23:58.383Z,1.32
2022-10-05T14:25:12.156Z,1.32
2022-10-05T14:26:46.997Z,1.17
2022-10-05T14:27:49.871Z,1.17
2022-10-05T14:28:53.406Z,1.17
2022-10-05T14:30:28.149Z,1.02
2022-10-05T14:31:32.118Z,0.885
2022-10-05T14:32:35.451Z,1.02
2022-10-05T14:34:11.420Z,1.02
2022-10-05T14:35:14.254Z,1.02
2022-10-05T14:36:21.271Z,1.02
2022-10-05T14:37:58.637Z,0.885
2022-10-05T14:39:01.678Z,0.885
2022-10-05T14:40:04.609Z,0.585
2022-10-05T14:41:40.603Z,0.585
2022-10-05T14:42:47.099Z,0.735
2022-10-05T14:43:50.365Z,0.585
2022-10-05T14:45:25.322Z,0.585
2022-10-05T14:46:35.707Z,0.885
2022-10-05T14:47:38.677Z,0.735
2022-10-05T14:49:13.536Z,1.02
2022-10-05T14:50:16.570Z,1.02
2022-10-05T14:51:19.597Z,1.02
2022-10-05T14:52:57.601Z,1.17
2022-10-05T14:54:00.415Z,1.17
2022-10-05T14:55:03.442Z,1.02
2022-10-05T14:56:39.408Z,1.17
2022-10-05T14:57:42.209Z,0.885
2022-10-05T14:58:45.067Z,1.17
2022-10-05T15:00:40.618Z,1.02
2022-10-05T15:01:44.289Z,1.02
2022-10-05T15:02:47.565Z,1.02
2022-10-05T15:04:22.192Z,1.17
2022-10-05T15:05:25.101Z,1.02
2022-10-05T15:06:28.618Z,0.885
2022-10-05T15:08:13.105Z,0.885
2022-10-05T15:09:28.566Z,1.02
2022-10-05T15:10:31.592Z,0.885
2022-10-05T15:12:06.651Z,0.885
2022-10-05T15:13:14.839Z,0.885
2022-10-05T15:14:17.502Z,0.885
2022-10-05T15:15:52.368Z,0.885
2022-10-05T15:16:55.705Z,0.885
2022-10-05T15:17:58.536Z,0.885
2022-10-05T15:19:40.370Z,0.585
2022-10-05T15:20:43.185Z,0.585
2022-10-05T15:21:46.135Z,0.585
2022-10-05T15:23:20.988Z,0.585
2022-10-05T15:24:23.934Z,0.585
2022-10-05T15:25:26.859Z,0.585
2022-10-05T15:27:01.553Z,0.585
2022-10-05T15:28:04.605Z,0.585
2022-10-05T15:29:07.762Z,0.585
2022-10-05T15:30:42.720Z,0.435
2022-10-05T15:31:45.592Z,0.585
2022-10-05T15:32:48.586Z,0.435
2022-10-05T15:34:23.541Z,0.585
2022-10-05T15:35:26.613Z,0.435
2022-10-05T15:36:30.576Z,0.435
2022-10-05T15:38:05.549Z,0.435
2022-10-05T15:39:11.823Z,0.585
2022-10-05T15:40:14.780Z,0.435
2022-10-05T15:41:49.361Z,0.585
2022-10-05T15:42:52.563Z,0.585
2022-10-05T15:43:55.408Z,0.585
2022-10-05T15:45:30.087Z,0.585
2022-10-05T15:46:33.625Z,0.585
2022-10-05T15:47:36.475Z,0.585
2022-10-05T15:49:11.304Z,0.435
2022-10-05T15:50:14.216Z,0.435
2022-10-05T15:51:17.014Z,0.585
2022-10-05T15:52:51.619Z,0.435
2022-10-05T15:53:54.743Z,0.435
2022-10-05T15:54:57.561Z,0.435
2022-10-05T15:56:32.316Z,0.435
2022-10-05T15:57:35.185Z,0.435
2022-10-05T15:58:38.764Z,0.435
2022-10-05T16:00:40.147Z,0
2022-10-05T16:01:43.448Z,0.435
2022-10-05T16:02:47.543Z,0
2022-10-05T16:04:22.323Z,0
2022-10-05T16:06:13.985Z,0
2022-10-05T16:07:17.021Z,0
2022-10-05T16:08:20.153Z,0
2022-10-05T16:09:54.939Z,0
2022-10-05T16:10:57.751Z,0
2022-10-05T16:12:00.633Z,0
2022-10-05T16:13:35.476Z,0
2022-10-05T16:14:38.368Z,0
2022-10-05T16:15:41.227Z,0
2022-10-05T16:17:16.603Z,0
2022-10-05T16:18:19.467Z,0
2022-10-05T16:19:22.351Z,0
2022-10-05T16:20:57.050Z,0
2022-10-05T16:21:59.839Z,0
2022-10-05T16:23:06.386Z,0
2022-10-05T16:24:41.061Z,0
2022-10-05T16:25:43.893Z,0
2022-10-05T16:26:47.147Z,0
2022-10-05T16:28:29.257Z,0
2022-10-05T16:29:32.651Z,0
2022-10-05T16:30:35.694Z,0
2022-10-05T16:32:10.628Z,0
2022-10-05T16:33:13.311Z,0
2022-10-05T16:34:16.199Z,0
2022-10-05T16:35:50.959Z,0
2022-10-05T16:36:53.906Z,0
2022-10-05T16:37:56.928Z,0
2022-10-05T16:39:32.463Z,0
2022-10-05T16:40:35.627Z,0
2022-10-05T16:41:38.592Z,0
2022-10-05T16:43:13.171Z,0
2022-10-05T16:44:16.269Z,0
2022-10-05T16:45:19.103Z,0
2022-10-05T16:47:00.818Z,0
2022-10-05T16:48:03.766Z,0
2022-10-05T16:49:06.556Z,0
2022-10-05T16:50:41.540Z,0
2022-10-05T16:51:44.409Z,0
2022-10-05T16:52:47.390Z,0
2022-10-05T16:54:22.351Z,0
2022-10-05T16:55:25.239Z,0
2022-10-05T16:56:28.166Z,0
2022-10-05T16:58:02.978Z,0
2022-10-05T16:59:05.807Z,0
2022-10-05T17:00:44.165Z,0
2022-10-05T17:01:48.115Z,0
2022-10-05T17:02:51.495Z,0
2022-10-05T17:04:26.341Z,0
2022-10-05T17:05:29.401Z,0
2022-10-05T17:06:32.280Z,0
2022-10-05T17:08:06.960Z,0
2022-10-05T17:09:10.084Z,0
2022-10-05T17:10:12.991Z,0
2022-10-05T17:11:47.878Z,0
2022-10-05T17:12:50.766Z,0
2022-10-05T17:13:53.575Z,0
2022-10-05T17:15:28.383Z,0
2022-10-05T17:16:31.513Z,0
2022-10-05T17:17:34.272Z,0
2022-10-05T17:19:09.053Z,0